sensor_id;sensor_type;location;lat;lon;timestamp;P1;P2;P0
30713;PMS7003;17465;47.934;33.430;2022-08-30T00:00:30;32.40;30.00;20.20
30713;PMS7003;17465;47.934;33.430;2022-08-30T00:03:00;26.60;26.60;16.40
30713;PMS7003;17465;47.934;33.430;2022-08-30T00:05:32;34.60;30.60;22.00
30713;PMS7003;17465;47.934;33.430;2022-08-30T00:08:03;33.00;30.00;21.20
30713;PMS7003;17465;47.934;33.430;2022-08-30T00:10:36;35.00;30.60;20.20
30713;PMS7003;17465;47.934;33.430;2022-08-30T00:13:08;34.60;32.00;21.00
30713;PMS7003;17465;47.934;33.430;2022-08-30T00:15:39;31.80;28.40;20.20
30713;PMS7003;17465;47.934;33.430;2022-08-30T00:18:11;33.80;30.40;19.20
30713;PMS7003;17465;47.934;33.430;2022-08-30T00:20:43;39.00;32.60;21.20
30713;PMS7003;17465;47.934;33.430;2022-08-30T00:23:15;38.40;33.00;21.00
30713;PMS7003;17465;47.934;33.430;2022-08-30T00:25:46;35.20;31.20;20.80
30713;PMS7003;17465;47.934;33.430;2022-08-30T00:28:17;39.20;33.40;21.20
30713;PMS7003;17465;47.934;33.430;2022-08-30T00:30:48;37.80;33.40;21.80
30713;PMS7003;17465;47.934;33.430;2022-08-30T00:33:18;33.40;31.00;21.40
30713;PMS7003;17465;47.934;33.430;2022-08-30T00:35:50;33.80;30.20;21.00
30713;PMS7003;17465;47.934;33.430;2022-08-30T00:38:20;34.00;31.00;20.40
30713;PMS7003;17465;47.934;33.430;2022-08-30T00:40:51;34.60;31.00;20.40
30713;PMS7003;17465;47.934;33.430;2022-08-30T00:43:26;36.40;32.60;21.00
30713;PMS7003;17465;47.934;33.430;2022-08-30T00:45:58;29.20;28.00;20.20
30713;PMS7003;17465;47.934;33.430;2022-08-30T00:48:30;32.40;30.20;20.40
30713;PMS7003;17465;47.934;33.430;2022-08-30T00:51:02;37.00;30.80;20.40
30713;PMS7003;17465;47.934;33.430;2022-08-30T00:53:36;36.40;31.00;20.40
30713;PMS7003;17465;47.934;33.430;2022-08-30T00:56:09;36.60;31.40;21.00
30713;PMS7003;17465;47.934;33.430;2022-08-30T00:58:41;35.80;31.00;21.40
30713;PMS7003;17465;47.934;33.430;2022-08-30T01:01:17;36.80;31.00;22.00
30713;PMS7003;17465;47.934;33.430;2022-08-30T01:03:51;36.40;30.40;21.20
30713;PMS7003;17465;47.934;33.430;2022-08-30T01:06:22;41.60;35.60;22.20
30713;PMS7003;17465;47.934;33.430;2022-08-30T01:08:54;42.50;34.00;23.00
30713;PMS7003;17465;47.934;33.430;2022-08-30T01:11:26;36.40;32.20;20.80
30713;PMS7003;17465;47.934;33.430;2022-08-30T01:13:56;38.80;34.40;22.20
30713;PMS7003;17465;47.934;33.430;2022-08-30T01:16:29;38.60;33.60;24.20
30713;PMS7003;17465;47.934;33.430;2022-08-30T01:19:00;35.00;31.60;21.60
30713;PMS7003;17465;47.934;33.430;2022-08-30T01:21:41;36.20;31.60;22.20
30713;PMS7003;17465;47.934;33.430;2022-08-30T01:24:35;36.20;31.40;22.80
30713;PMS7003;17465;47.934;33.430;2022-08-30T01:27:06;36.60;32.40;23.00
30713;PMS7003;17465;47.934;33.430;2022-08-30T01:29:37;39.20;32.40;22.20
30713;PMS7003;17465;47.934;33.430;2022-08-30T01:32:07;34.00;31.40;22.20
30713;PMS7003;17465;47.934;33.430;2022-08-30T01:34:48;33.60;30.40;20.20
30713;PMS7003;17465;47.934;33.430;2022-08-30T01:37:24;40.20;34.60;23.20
30713;PMS7003;17465;47.934;33.430;2022-08-30T01:39:52;42.40;34.20;23.00
30713;PMS7003;17465;47.934;33.430;2022-08-30T01:42:23;35.40;30.60;21.00
30713;PMS7003;17465;47.934;33.430;2022-08-30T01:44:55;38.75;33.75;22.00
30713;PMS7003;17465;47.934;33.430;2022-08-30T01:47:26;31.60;29.00;19.00
30713;PMS7003;17465;47.934;33.430;2022-08-30T01:49:56;39.80;33.40;23.40
30713;PMS7003;17465;47.934;33.430;2022-08-30T01:52:27;38.20;33.80;22.80
30713;PMS7003;17465;47.934;33.430;2022-08-30T01:54:57;38.20;31.60;22.20
30713;PMS7003;17465;47.934;33.430;2022-08-30T01:57:28;35.20;31.40;21.20
30713;PMS7003;17465;47.934;33.430;2022-08-30T01:59:58;38.20;32.00;22.60
30713;PMS7003;17465;47.934;33.430;2022-08-30T02:02:29;39.20;33.20;22.40
30713;PMS7003;17465;47.934;33.430;2022-08-30T02:04:59;34.40;30.80;22.60
30713;PMS7003;17465;47.934;33.430;2022-08-30T02:07:30;41.00;34.00;22.00
30713;PMS7003;17465;47.934;33.430;2022-08-30T02:10:00;37.20;33.40;22.20
30713;PMS7003;17465;47.934;33.430;2022-08-30T02:12:31;40.80;32.60;23.00
30713;PMS7003;17465;47.934;33.430;2022-08-30T02:15:02;36.00;33.00;22.00
30713;PMS7003;17465;47.934;33.430;2022-08-30T02:17:33;40.40;34.40;22.00
30713;PMS7003;17465;47.934;33.430;2022-08-30T02:20:04;41.60;34.00;23.20
30713;PMS7003;17465;47.934;33.430;2022-08-30T02:22:35;43.00;36.00;24.75
30713;PMS7003;17465;47.934;33.430;2022-08-30T02:25:08;38.40;33.60;23.80
30713;PMS7003;17465;47.934;33.430;2022-08-30T02:27:40;37.20;32.60;22.00
30713;PMS7003;17465;47.934;33.430;2022-08-30T02:30:11;39.50;34.25;25.00
30713;PMS7003;17465;47.934;33.430;2022-08-30T02:32:45;39.80;33.80;24.00
30713;PMS7003;17465;47.934;33.430;2022-08-30T02:35:16;38.00;33.00;22.60
30713;PMS7003;17465;47.934;33.430;2022-08-30T02:37:46;41.00;33.60;23.60
30713;PMS7003;17465;47.934;33.430;2022-08-30T02:40:17;37.40;32.20;22.00
30713;PMS7003;17465;47.934;33.430;2022-08-30T02:42:48;41.25;34.00;23.00
30713;PMS7003;17465;47.934;33.430;2022-08-30T02:45:18;40.50;35.75;23.75
30713;PMS7003;17465;47.934;33.430;2022-08-30T02:47:48;40.75;33.25;24.25
30713;PMS7003;17465;47.934;33.430;2022-08-30T02:50:41;38.75;33.75;22.50
30713;PMS7003;17465;47.934;33.430;2022-08-30T02:53:21;37.50;32.75;24.00
30713;PMS7003;17465;47.934;33.430;2022-08-30T02:55:53;40.00;34.20;23.20
30713;PMS7003;17465;47.934;33.430;2022-08-30T02:58:25;38.80;33.40;23.00
30713;PMS7003;17465;47.934;33.430;2022-08-30T03:00:57;40.25;33.75;22.25
30713;PMS7003;17465;47.934;33.430;2022-08-30T03:03:28;43.50;35.75;25.00
30713;PMS7003;17465;47.934;33.430;2022-08-30T03:05:58;31.50;30.50;20.75
30713;PMS7003;17465;47.934;33.430;2022-08-30T03:08:29;40.75;34.00;23.00
30713;PMS7003;17465;47.934;33.430;2022-08-30T03:11:01;37.75;32.00;22.50
30713;PMS7003;17465;47.934;33.430;2022-08-30T03:13:33;40.00;34.00;23.25
30713;PMS7003;17465;47.934;33.430;2022-08-30T03:16:03;39.50;34.25;24.50
30713;PMS7003;17465;47.934;33.430;2022-08-30T03:18:34;40.00;34.25;23.75
30713;PMS7003;17465;47.934;33.430;2022-08-30T03:21:09;38.25;34.00;23.00
30713;PMS7003;17465;47.934;33.430;2022-08-30T03:23:42;38.00;33.25;22.25
30713;PMS7003;17465;47.934;33.430;2022-08-30T03:26:13;41.25;33.50;22.25
30713;PMS7003;17465;47.934;33.430;2022-08-30T03:28:44;38.00;33.20;22.20
30713;PMS7003;17465;47.934;33.430;2022-08-30T03:31:14;35.80;31.60;21.20
30713;PMS7003;17465;47.934;33.430;2022-08-30T03:33:46;40.80;35.40;24.20
30713;PMS7003;17465;47.934;33.430;2022-08-30T03:36:16;44.00;36.00;24.50
30713;PMS7003;17465;47.934;33.430;2022-08-30T03:38:47;44.00;35.50;23.75
30713;PMS7003;17465;47.934;33.430;2022-08-30T03:41:17;40.00;33.80;23.20
30713;PMS7003;17465;47.934;33.430;2022-08-30T03:43:48;41.50;34.75;23.00
30713;PMS7003;17465;47.934;33.430;2022-08-30T03:46:18;42.00;35.75;25.25
30713;PMS7003;17465;47.934;33.430;2022-08-30T03:48:51;40.00;34.25;23.50
30713;PMS7003;17465;47.934;33.430;2022-08-30T03:51:22;42.00;34.00;23.00
30713;PMS7003;17465;47.934;33.430;2022-08-30T03:53:52;43.20;36.20;24.80
30713;PMS7003;17465;47.934;33.430;2022-08-30T03:56:23;42.80;36.00;24.20
30713;PMS7003;17465;47.934;33.430;2022-08-30T03:58:53;44.25;37.50;24.25
30713;PMS7003;17465;47.934;33.430;2022-08-30T04:01:24;42.40;35.60;23.60
30713;PMS7003;17465;47.934;33.430;2022-08-30T04:03:54;44.00;36.25;25.00
30713;PMS7003;17465;47.934;33.430;2022-08-30T04:06:25;44.50;37.00;25.75
30713;PMS7003;17465;47.934;33.430;2022-08-30T04:08:55;48.25;40.25;26.00
30713;PMS7003;17465;47.934;33.430;2022-08-30T04:11:27;44.00;37.25;25.25
30713;PMS7003;17465;47.934;33.430;2022-08-30T04:13:57;40.00;33.00;22.50
30713;PMS7003;17465;47.934;33.430;2022-08-30T04:16:28;43.25;36.75;24.25
30713;PMS7003;17465;47.934;33.430;2022-08-30T04:18:58;42.00;34.80;24.20
30713;PMS7003;17465;47.934;33.430;2022-08-30T04:21:29;41.40;34.80;24.00
30713;PMS7003;17465;47.934;33.430;2022-08-30T04:23:59;40.50;33.75;22.50
30713;PMS7003;17465;47.934;33.430;2022-08-30T04:26:30;39.20;32.40;21.20
30713;PMS7003;17465;47.934;33.430;2022-08-30T04:29:01;47.00;39.50;25.25
30713;PMS7003;17465;47.934;33.430;2022-08-30T04:31:31;47.25;40.00;26.00
30713;PMS7003;17465;47.934;33.430;2022-08-30T04:34:02;47.00;39.25;27.25
30713;PMS7003;17465;47.934;33.430;2022-08-30T04:36:33;45.75;37.75;25.50
30713;PMS7003;17465;47.934;33.430;2022-08-30T04:39:03;42.50;37.00;26.50
30713;PMS7003;17465;47.934;33.430;2022-08-30T04:41:35;44.00;37.00;24.80
30713;PMS7003;17465;47.934;33.430;2022-08-30T04:44:06;46.00;39.20;26.20
30713;PMS7003;17465;47.934;33.430;2022-08-30T04:46:39;46.00;38.00;26.25
30713;PMS7003;17465;47.934;33.430;2022-08-30T04:49:11;50.00;40.50;26.75
30713;PMS7003;17465;47.934;33.430;2022-08-30T04:51:45;42.60;36.60;24.80
30713;PMS7003;17465;47.934;33.430;2022-08-30T04:54:16;45.20;37.20;25.00
30713;PMS7003;17465;47.934;33.430;2022-08-30T04:56:46;43.20;36.20;25.00
30713;PMS7003;17465;47.934;33.430;2022-08-30T04:59:17;41.60;35.60;25.40
30713;PMS7003;17465;47.934;33.430;2022-08-30T05:01:47;42.20;36.60;25.00
30713;PMS7003;17465;47.934;33.430;2022-08-30T05:04:18;45.40;37.40;25.40
30713;PMS7003;17465;47.934;33.430;2022-08-30T05:06:48;42.60;36.40;24.40
30713;PMS7003;17465;47.934;33.430;2022-08-30T05:09:19;43.00;35.40;25.00
30713;PMS7003;17465;47.934;33.430;2022-08-30T05:11:49;42.40;35.80;24.00
30713;PMS7003;17465;47.934;33.430;2022-08-30T05:14:20;45.00;36.20;25.80
30713;PMS7003;17465;47.934;33.430;2022-08-30T05:16:50;44.40;37.40;26.00
30713;PMS7003;17465;47.934;33.430;2022-08-30T05:19:21;44.20;36.60;25.20
30713;PMS7003;17465;47.934;33.430;2022-08-30T05:21:52;42.60;36.80;25.60
30713;PMS7003;17465;47.934;33.430;2022-08-30T05:24:22;44.80;38.40;26.00
30713;PMS7003;17465;47.934;33.430;2022-08-30T05:26:53;44.40;37.60;25.00
30713;PMS7003;17465;47.934;33.430;2022-08-30T05:29:23;47.40;38.80;26.60
30713;PMS7003;17465;47.934;33.430;2022-08-30T05:31:54;47.60;38.60;26.20
30713;PMS7003;17465;47.934;33.430;2022-08-30T05:34:25;47.40;38.00;24.80
30713;PMS7003;17465;47.934;33.430;2022-08-30T05:36:57;41.60;34.20;22.80
30713;PMS7003;17465;47.934;33.430;2022-08-30T05:39:28;45.80;38.00;25.80
30713;PMS7003;17465;47.934;33.430;2022-08-30T05:42:00;42.80;35.40;25.00
30713;PMS7003;17465;47.934;33.430;2022-08-30T05:44:30;47.40;38.00;25.20
30713;PMS7003;17465;47.934;33.430;2022-08-30T05:47:01;45.00;36.60;24.00
30713;PMS7003;17465;47.934;33.430;2022-08-30T05:49:32;45.60;37.80;25.20
30713;PMS7003;17465;47.934;33.430;2022-08-30T05:52:03;47.40;39.40;25.40
30713;PMS7003;17465;47.934;33.430;2022-08-30T05:54:34;47.60;38.60;25.80
30713;PMS7003;17465;47.934;33.430;2022-08-30T05:57:04;46.20;38.00;26.40
30713;PMS7003;17465;47.934;33.430;2022-08-30T05:59:35;47.20;39.60;27.20
30713;PMS7003;17465;47.934;33.430;2022-08-30T06:02:05;45.60;36.40;25.00
30713;PMS7003;17465;47.934;33.430;2022-08-30T06:04:36;42.40;36.40;25.00
30713;PMS7003;17465;47.934;33.430;2022-08-30T06:07:07;49.00;40.60;26.20
30713;PMS7003;17465;47.934;33.430;2022-08-30T06:09:39;47.40;39.60;26.00
30713;PMS7003;17465;47.934;33.430;2022-08-30T06:12:10;47.80;39.00;26.60
30713;PMS7003;17465;47.934;33.430;2022-08-30T06:14:40;45.20;37.60;25.20
30713;PMS7003;17465;47.934;33.430;2022-08-30T06:17:11;42.60;35.20;24.80
30713;PMS7003;17465;47.934;33.430;2022-08-30T06:19:41;41.80;35.80;24.20
30713;PMS7003;17465;47.934;33.430;2022-08-30T06:22:11;44.20;36.20;24.20
30713;PMS7003;17465;47.934;33.430;2022-08-30T06:24:42;41.80;34.40;23.60
30713;PMS7003;17465;47.934;33.430;2022-08-30T06:27:14;44.60;37.80;25.60
30713;PMS7003;17465;47.934;33.430;2022-08-30T06:29:45;41.60;35.40;25.00
30713;PMS7003;17465;47.934;33.430;2022-08-30T06:32:17;36.80;31.80;22.00
30713;PMS7003;17465;47.934;33.430;2022-08-30T06:34:47;50.60;39.20;24.00
30713;PMS7003;17465;47.934;33.430;2022-08-30T06:37:18;57.20;43.00;26.40
30713;PMS7003;17465;47.934;33.430;2022-08-30T06:39:50;61.00;45.00;27.40
30713;PMS7003;17465;47.934;33.430;2022-08-30T06:42:20;79.00;60.20;28.80
30713;PMS7003;17465;47.934;33.430;2022-08-30T06:44:52;47.00;38.00;25.40
30713;PMS7003;17465;47.934;33.430;2022-08-30T06:47:25;15.00;14.60;3.80
30713;PMS7003;17465;47.934;33.430;2022-08-30T06:49:57;39.80;34.00;24.20
30713;PMS7003;17465;47.934;33.430;2022-08-30T06:52:29;40.60;34.20;23.40
30713;PMS7003;17465;47.934;33.430;2022-08-30T06:54:59;41.00;33.40;23.60
30713;PMS7003;17465;47.934;33.430;2022-08-30T06:57:30;42.60;34.80;23.80
30713;PMS7003;17465;47.934;33.430;2022-08-30T07:00:00;43.00;36.40;25.20
30713;PMS7003;17465;47.934;33.430;2022-08-30T07:02:32;37.00;32.00;22.00
30713;PMS7003;17465;47.934;33.430;2022-08-30T07:05:05;33.40;29.60;20.20
30713;PMS7003;17465;47.934;33.430;2022-08-30T07:07:37;27.80;26.40;18.80
30713;PMS7003;17465;47.934;33.430;2022-08-30T07:10:09;32.60;27.80;20.20
30713;PMS7003;17465;47.934;33.430;2022-08-30T07:12:39;31.80;28.60;20.00
30713;PMS7003;17465;47.934;33.430;2022-08-30T07:15:10;29.00;26.60;19.20
30713;PMS7003;17465;47.934;33.430;2022-08-30T07:17:41;29.40;27.20;19.60
30713;PMS7003;17465;47.934;33.430;2022-08-30T07:20:11;30.80;27.80;19.00
30713;PMS7003;17465;47.934;33.430;2022-08-30T07:22:41;32.80;29.40;19.80
30713;PMS7003;17465;47.934;33.430;2022-08-30T07:25:12;27.80;25.00;18.00
30713;PMS7003;17465;47.934;33.430;2022-08-30T07:27:44;27.00;26.20;18.20
30713;PMS7003;17465;47.934;33.430;2022-08-30T07:30:17;26.20;23.60;16.80
30713;PMS7003;17465;47.934;33.430;2022-08-30T07:32:48;27.60;25.60;19.00
30713;PMS7003;17465;47.934;33.430;2022-08-30T07:35:18;27.40;26.00;18.80
30713;PMS7003;17465;47.934;33.430;2022-08-30T07:37:48;31.00;26.80;18.60
30713;PMS7003;17465;47.934;33.430;2022-08-30T07:40:19;32.20;28.80;19.60
30713;PMS7003;17465;47.934;33.430;2022-08-30T07:42:50;28.00;27.00;18.40
30713;PMS7003;17465;47.934;33.430;2022-08-30T07:45:20;28.60;26.80;19.40
30713;PMS7003;17465;47.934;33.430;2022-08-30T07:47:50;28.00;26.60;19.20
30713;PMS7003;17465;47.934;33.430;2022-08-30T07:50:21;26.00;24.20;16.80
30713;PMS7003;17465;47.934;33.430;2022-08-30T07:52:51;28.60;26.20;18.80
30713;PMS7003;17465;47.934;33.430;2022-08-30T07:55:22;27.40;25.60;18.60
30713;PMS7003;17465;47.934;33.430;2022-08-30T07:57:52;27.60;25.60;18.40
30713;PMS7003;17465;47.934;33.430;2022-08-30T08:00:23;22.60;21.40;17.00
30713;PMS7003;17465;47.934;33.430;2022-08-30T08:02:53;26.20;26.00;18.80
30713;PMS7003;17465;47.934;33.430;2022-08-30T08:05:24;27.40;25.20;17.40
30713;PMS7003;17465;47.934;33.430;2022-08-30T08:07:55;24.00;22.80;16.40
30713;PMS7003;17465;47.934;33.430;2022-08-30T08:10:25;26.40;24.40;17.80
30713;PMS7003;17465;47.934;33.430;2022-08-30T08:12:57;24.00;23.00;16.80
30713;PMS7003;17465;47.934;33.430;2022-08-30T08:15:28;26.40;25.80;18.40
30713;PMS7003;17465;47.934;33.430;2022-08-30T08:17:58;24.20;22.80;16.20
30713;PMS7003;17465;47.934;33.430;2022-08-30T08:20:29;24.60;22.00;16.20
30713;PMS7003;17465;47.934;33.430;2022-08-30T08:23:01;19.40;19.20;14.20
30713;PMS7003;17465;47.934;33.430;2022-08-30T08:25:32;26.40;24.60;16.40
30713;PMS7003;17465;47.934;33.430;2022-08-30T08:28:05;22.20;21.40;16.20
30713;PMS7003;17465;47.934;33.430;2022-08-30T08:30:37;24.80;23.60;17.20
30713;PMS7003;17465;47.934;33.430;2022-08-30T08:33:07;21.60;18.60;14.20
30713;PMS7003;17465;47.934;33.430;2022-08-30T08:35:38;22.20;21.60;15.00
30713;PMS7003;17465;47.934;33.430;2022-08-30T08:38:08;28.80;25.40;17.20
30713;PMS7003;17465;47.934;33.430;2022-08-30T08:40:54;21.80;21.40;16.40
30713;PMS7003;17465;47.934;33.430;2022-08-30T08:43:33;22.20;21.80;15.80
30713;PMS7003;17465;47.934;33.430;2022-08-30T08:49:04;21.00;20.40;16.00
30713;PMS7003;17465;47.934;33.430;2022-08-30T08:51:37;25.00;24.60;17.80
30713;PMS7003;17465;47.934;33.430;2022-08-30T08:54:12;20.40;20.20;17.00
30713;PMS7003;17465;47.934;33.430;2022-08-30T08:56:47;23.40;23.20;16.20
30713;PMS7003;17465;47.934;33.430;2022-08-30T08:59:18;25.00;24.60;17.00
30713;PMS7003;17465;47.934;33.430;2022-08-30T09:01:49;23.40;22.60;15.80
30713;PMS7003;17465;47.934;33.430;2022-08-30T09:04:21;23.40;22.20;16.20
30713;PMS7003;17465;47.934;33.430;2022-08-30T09:06:54;19.40;18.80;14.40
30713;PMS7003;17465;47.934;33.430;2022-08-30T09:09:34;21.80;21.80;15.60
30713;PMS7003;17465;47.934;33.430;2022-08-30T09:12:08;19.00;19.00;13.60
30713;PMS7003;17465;47.934;33.430;2022-08-30T09:14:46;16.60;16.20;11.00
30713;PMS7003;17465;47.934;33.430;2022-08-30T09:17:17;17.00;15.60;11.20
30713;PMS7003;17465;47.934;33.430;2022-08-30T09:25:08;23.40;21.80;16.20
30713;PMS7003;17465;47.934;33.430;2022-08-30T09:27:45;23.40;21.80;15.80
30713;PMS7003;17465;47.934;33.430;2022-08-30T09:30:23;21.80;20.40;15.60
30713;PMS7003;17465;47.934;33.430;2022-08-30T09:33:00;20.80;19.20;15.00
30713;PMS7003;17465;47.934;33.430;2022-08-30T09:35:34;21.40;20.80;15.80
30713;PMS7003;17465;47.934;33.430;2022-08-30T09:38:07;20.20;20.00;13.80
30713;PMS7003;17465;47.934;33.430;2022-08-30T09:40:42;19.20;17.80;14.20
30713;PMS7003;17465;47.934;33.430;2022-08-30T09:46:07;17.40;17.40;11.80
30713;PMS7003;17465;47.934;33.430;2022-08-30T09:48:41;11.80;10.60;6.20
30713;PMS7003;17465;47.934;33.430;2022-08-30T09:51:49;22.20;20.00;15.00
30713;PMS7003;17465;47.934;33.430;2022-08-30T10:02:36;18.80;18.80;14.00
30713;PMS7003;17465;47.934;33.430;2022-08-30T10:11:17;18.40;18.40;13.40
30713;PMS7003;17465;47.934;33.430;2022-08-30T10:16:14;21.40;21.40;16.20
30713;PMS7003;17465;47.934;33.430;2022-08-30T10:18:52;22.80;21.60;16.20
30713;PMS7003;17465;47.934;33.430;2022-08-30T10:24:25;20.40;20.40;15.40
30713;PMS7003;17465;47.934;33.430;2022-08-30T10:27:10;18.40;17.60;13.00
30713;PMS7003;17465;47.934;33.430;2022-08-30T10:29:45;20.20;20.00;15.00
30713;PMS7003;17465;47.934;33.430;2022-08-30T10:32:23;18.20;18.20;15.20
30713;PMS7003;17465;47.934;33.430;2022-08-30T10:35:22;20.40;20.40;16.00
30713;PMS7003;17465;47.934;33.430;2022-08-30T10:38:01;19.00;18.80;14.40
30713;PMS7003;17465;47.934;33.430;2022-08-30T10:40:33;21.00;21.00;15.20
30713;PMS7003;17465;47.934;33.430;2022-08-30T10:43:07;22.00;20.60;15.60
30713;PMS7003;17465;47.934;33.430;2022-08-30T10:45:39;21.00;18.80;14.20
30713;PMS7003;17465;47.934;33.430;2022-08-30T10:50:53;18.80;17.60;14.60
30713;PMS7003;17465;47.934;33.430;2022-08-30T10:53:30;18.40;18.40;13.80
30713;PMS7003;17465;47.934;33.430;2022-08-30T10:56:00;19.00;18.80;12.80
30713;PMS7003;17465;47.934;33.430;2022-08-30T10:58:35;20.40;19.60;14.20
30713;PMS7003;17465;47.934;33.430;2022-08-30T11:01:18;18.40;17.20;13.00
30713;PMS7003;17465;47.934;33.430;2022-08-30T11:06:42;19.40;18.60;14.60
30713;PMS7003;17465;47.934;33.430;2022-08-30T11:12:23;18.80;18.80;14.00
30713;PMS7003;17465;47.934;33.430;2022-08-30T11:15:16;19.20;19.20;13.40
30713;PMS7003;17465;47.934;33.430;2022-08-30T11:20:30;19.40;18.80;14.20
30713;PMS7003;17465;47.934;33.430;2022-08-30T11:31:09;19.80;19.00;15.20
30713;PMS7003;17465;47.934;33.430;2022-08-30T11:33:53;21.00;19.80;14.40
30713;PMS7003;17465;47.934;33.430;2022-08-30T11:41:45;19.20;19.00;15.00
30713;PMS7003;17465;47.934;33.430;2022-08-30T11:56:17;19.00;19.00;13.80
30713;PMS7003;17465;47.934;33.430;2022-08-30T11:58:57;16.80;16.80;13.60
30713;PMS7003;17465;47.934;33.430;2022-08-30T12:01:49;17.80;17.40;13.80
30713;PMS7003;17465;47.934;33.430;2022-08-30T12:04:25;19.60;19.20;14.80
30713;PMS7003;17465;47.934;33.430;2022-08-30T12:06:57;19.00;18.20;13.80
30713;PMS7003;17465;47.934;33.430;2022-08-30T12:12:06;19.40;18.60;15.20
30713;PMS7003;17465;47.934;33.430;2022-08-30T12:19:59;26.20;22.60;17.20
30713;PMS7003;17465;47.934;33.430;2022-08-30T12:22:37;21.40;21.40;15.40
30713;PMS7003;17465;47.934;33.430;2022-08-30T12:25:32;18.80;18.80;14.20
30713;PMS7003;17465;47.934;33.430;2022-08-30T12:28:23;75.80;75.20;56.60
30713;PMS7003;17465;47.934;33.430;2022-08-30T12:30:54;22.80;22.20;16.60
30713;PMS7003;17465;47.934;33.430;2022-08-30T12:33:29;14.80;14.80;10.60
30713;PMS7003;17465;47.934;33.430;2022-08-30T12:36:01;58.00;50.60;39.00
30713;PMS7003;17465;47.934;33.430;2022-08-30T12:38:33;57.80;50.80;37.60
30713;PMS7003;17465;47.934;33.430;2022-08-30T12:41:05;51.60;42.40;31.80
30713;PMS7003;17465;47.934;33.430;2022-08-30T12:43:37;33.60;29.20;20.80
30713;PMS7003;17465;47.934;33.430;2022-08-30T12:46:11;19.80;19.80;15.20
30713;PMS7003;17465;47.934;33.430;2022-08-30T12:48:44;18.60;18.60;12.60
30713;PMS7003;17465;47.934;33.430;2022-08-30T12:51:28;40.00;34.20;24.60
30713;PMS7003;17465;47.934;33.430;2022-08-30T12:56:54;17.40;17.40;12.80
30713;PMS7003;17465;47.934;33.430;2022-08-30T12:59:37;19.60;18.80;15.40
30713;PMS7003;17465;47.934;33.430;2022-08-30T13:02:16;21.60;21.60;16.60
30713;PMS7003;17465;47.934;33.430;2022-08-30T13:04:54;21.40;21.40;16.60
30713;PMS7003;17465;47.934;33.430;2022-08-30T13:07:35;21.20;19.80;15.80
30713;PMS7003;17465;47.934;33.430;2022-08-30T13:10:08;20.80;19.00;15.20
30713;PMS7003;17465;47.934;33.430;2022-08-30T13:12:58;17.20;17.20;13.80
30713;PMS7003;17465;47.934;33.430;2022-08-30T13:15:31;16.40;16.00;12.80
30713;PMS7003;17465;47.934;33.430;2022-08-30T13:21:08;17.20;17.20;13.40
30713;PMS7003;17465;47.934;33.430;2022-08-30T13:23:57;18.40;18.40;13.00
30713;PMS7003;17465;47.934;33.430;2022-08-30T13:26:36;18.20;17.80;13.60
30713;PMS7003;17465;47.934;33.430;2022-08-30T13:29:04;23.80;23.60;16.20
30713;PMS7003;17465;47.934;33.430;2022-08-30T13:31:38;19.20;18.60;13.00
30713;PMS7003;17465;47.934;33.430;2022-08-30T13:34:08;18.40;18.40;14.60
30713;PMS7003;17465;47.934;33.430;2022-08-30T13:36:42;19.00;18.40;14.20
30713;PMS7003;17465;47.934;33.430;2022-08-30T13:39:13;17.00;17.00;13.00
30713;PMS7003;17465;47.934;33.430;2022-08-30T13:41:43;17.40;16.80;12.20
30713;PMS7003;17465;47.934;33.430;2022-08-30T13:44:16;21.60;20.80;16.40
30713;PMS7003;17465;47.934;33.430;2022-08-30T13:46:48;18.40;18.40;13.40
30713;PMS7003;17465;47.934;33.430;2022-08-30T13:49:23;18.40;18.40;13.60
30713;PMS7003;17465;47.934;33.430;2022-08-30T13:51:57;28.20;25.60;17.20
30713;PMS7003;17465;47.934;33.430;2022-08-30T13:54:30;25.40;24.40;16.80
30713;PMS7003;17465;47.934;33.430;2022-08-30T13:57:07;22.60;22.00;16.40
30713;PMS7003;17465;47.934;33.430;2022-08-30T13:59:34;21.60;20.00;15.00
30713;PMS7003;17465;47.934;33.430;2022-08-30T14:02:06;19.60;19.60;14.60
30713;PMS7003;17465;47.934;33.430;2022-08-30T14:04:38;23.00;22.40;16.60
30713;PMS7003;17465;47.934;33.430;2022-08-30T14:07:10;19.20;19.20;14.00
30713;PMS7003;17465;47.934;33.430;2022-08-30T14:09:43;20.40;18.00;14.80
30713;PMS7003;17465;47.934;33.430;2022-08-30T14:12:15;12.80;12.80;9.60
30713;PMS7003;17465;47.934;33.430;2022-08-30T14:14:47;19.40;18.80;14.20
30713;PMS7003;17465;47.934;33.430;2022-08-30T14:17:20;18.80;18.60;14.20
30713;PMS7003;17465;47.934;33.430;2022-08-30T14:19:51;18.40;18.00;13.00
30713;PMS7003;17465;47.934;33.430;2022-08-30T14:22:21;19.60;18.60;12.80
30713;PMS7003;17465;47.934;33.430;2022-08-30T14:24:52;15.80;15.80;12.80
30713;PMS7003;17465;47.934;33.430;2022-08-30T14:27:23;17.20;16.00;11.80
30713;PMS7003;17465;47.934;33.430;2022-08-30T14:29:55;14.00;14.00;11.60
30713;PMS7003;17465;47.934;33.430;2022-08-30T14:32:26;16.20;16.20;12.40
30713;PMS7003;17465;47.934;33.430;2022-08-30T14:34:57;15.40;15.00;11.20
30713;PMS7003;17465;47.934;33.430;2022-08-30T14:37:28;11.60;11.00;7.60
30713;PMS7003;17465;47.934;33.430;2022-08-30T14:39:59;15.20;12.80;10.00
30713;PMS7003;17465;47.934;33.430;2022-08-30T14:42:31;18.00;18.00;13.20
30713;PMS7003;17465;47.934;33.430;2022-08-30T14:45:03;18.80;18.80;15.00
30713;PMS7003;17465;47.934;33.430;2022-08-30T14:47:35;19.20;18.20;13.60
30713;PMS7003;17465;47.934;33.430;2022-08-30T14:50:06;19.60;19.40;13.20
30713;PMS7003;17465;47.934;33.430;2022-08-30T14:52:37;18.00;16.80;13.80
30713;PMS7003;17465;47.934;33.430;2022-08-30T14:55:08;21.20;21.20;15.00
30713;PMS7003;17465;47.934;33.430;2022-08-30T14:57:39;23.40;22.20;15.80
30713;PMS7003;17465;47.934;33.430;2022-08-30T15:00:10;20.20;20.20;14.20
30713;PMS7003;17465;47.934;33.430;2022-08-30T15:02:42;20.20;20.20;13.40
30713;PMS7003;17465;47.934;33.430;2022-08-30T15:05:12;20.80;19.80;13.20
30713;PMS7003;17465;47.934;33.430;2022-08-30T15:07:43;20.00;19.00;13.40
30713;PMS7003;17465;47.934;33.430;2022-08-30T15:10:17;19.20;19.20;15.00
30713;PMS7003;17465;47.934;33.430;2022-08-30T15:12:50;22.80;22.20;15.40
30713;PMS7003;17465;47.934;33.430;2022-08-30T15:15:22;21.00;21.00;16.00
30713;PMS7003;17465;47.934;33.430;2022-08-30T15:17:53;21.20;20.60;14.80
30713;PMS7003;17465;47.934;33.430;2022-08-30T15:20:23;25.40;23.80;15.80
30713;PMS7003;17465;47.934;33.430;2022-08-30T15:22:53;23.20;22.00;17.20
30713;PMS7003;17465;47.934;33.430;2022-08-30T15:25:25;22.60;22.60;16.40